sensor_id;sensor_type;location;lat;lon;timestamp;P1;durP1;ratioP1;P2;durP2;ratioP2
54745;SDS011;40640;48.130;11.356;2023-02-19T00:03:14;2.63;;;1.50;;
54745;SDS011;40640;48.130;11.356;2023-02-19T00:07:17;3.65;;;1.42;;
54745;SDS011;40640;48.130;11.356;2023-02-19T00:11:21;2.15;;;1.30;;
54745;SDS011;40640;48.130;11.356;2023-02-19T00:15:26;2.95;;;1.95;;
54745;SDS011;40640;48.130;11.356;2023-02-19T00:19:30;2.70;;;1.52;;
54745;SDS011;40640;48.130;11.356;2023-02-19T00:23:33;4.10;;;1.50;;
54745;SDS011;40640;48.130;11.356;2023-02-19T00:27:36;2.53;;;1.08;;
54745;SDS011;40640;48.130;11.356;2023-02-19T00:31:40;1.75;;;1.30;;
54745;SDS011;40640;48.130;11.356;2023-02-19T00:35:43;2.83;;;1.67;;
54745;SDS011;40640;48.130;11.356;2023-02-19T00:39:47;2.55;;;1.60;;
54745;SDS011;40640;48.130;11.356;2023-02-19T00:43:50;3.60;;;1.40;;
54745;SDS011;40640;48.130;11.356;2023-02-19T00:47:56;2.15;;;1.45;;
54745;SDS011;40640;48.130;11.356;2023-02-19T00:52:00;1.70;;;1.30;;
54745;SDS011;40640;48.130;11.356;2023-02-19T00:56:03;1.70;;;1.35;;
54745;SDS011;40640;48.130;11.356;2023-02-19T01:00:07;1.90;;;1.40;;
54745;SDS011;40640;48.130;11.356;2023-02-19T01:04:12;1.52;;;1.23;;
54745;SDS011;40640;48.130;11.356;2023-02-19T01:08:16;1.75;;;1.30;;
54745;SDS011;40640;48.130;11.356;2023-02-19T01:12:19;5.47;;;1.63;;
54745;SDS011;40640;48.130;11.356;2023-02-19T01:16:24;3.75;;;1.45;;
54745;SDS011;40640;48.130;11.356;2023-02-19T01:20:30;4.13;;;1.45;;
54745;SDS011;40640;48.130;11.356;2023-02-19T01:24:33;1.90;;;1.55;;
54745;SDS011;40640;48.130;11.356;2023-02-19T01:28:35;2.40;;;1.70;;
54745;SDS011;40640;48.130;11.356;2023-02-19T01:32:38;1.90;;;1.30;;
54745;SDS011;40640;48.130;11.356;2023-02-19T01:36:42;2.42;;;1.80;;
54745;SDS011;40640;48.130;11.356;2023-02-19T01:40:52;2.20;;;1.52;;
54745;SDS011;40640;48.130;11.356;2023-02-19T01:49:28;2.03;;;1.60;;
54745;SDS011;40640;48.130;11.356;2023-02-19T01:53:35;2.88;;;1.70;;
54745;SDS011;40640;48.130;11.356;2023-02-19T01:57:41;2.88;;;1.85;;
54745;SDS011;40640;48.130;11.356;2023-02-19T02:01:50;3.28;;;1.70;;
54745;SDS011;40640;48.130;11.356;2023-02-19T02:05:55;2.40;;;1.67;;
54745;SDS011;40640;48.130;11.356;2023-02-19T02:10:03;2.60;;;1.70;;
54745;SDS011;40640;48.130;11.356;2023-02-19T02:14:20;6.93;;;2.00;;
54745;SDS011;40640;48.130;11.356;2023-02-19T02:18:27;4.10;;;1.52;;
54745;SDS011;40640;48.130;11.356;2023-02-19T02:22:39;2.30;;;1.80;;
54745;SDS011;40640;48.130;11.356;2023-02-19T02:26:53;2.65;;;1.60;;
54745;SDS011;40640;48.130;11.356;2023-02-19T02:31:03;3.22;;;1.90;;
54745;SDS011;40640;48.130;11.356;2023-02-19T02:35:10;3.97;;;1.90;;
54745;SDS011;40640;48.130;11.356;2023-02-19T02:39:21;2.42;;;1.60;;
54745;SDS011;40640;48.130;11.356;2023-02-19T02:43:26;1.55;;;1.45;;
54745;SDS011;40640;48.130;11.356;2023-02-19T02:47:32;3.28;;;2.00;;
54745;SDS011;40640;48.130;11.356;2023-02-19T02:51:46;3.72;;;2.38;;
54745;SDS011;40640;48.130;11.356;2023-02-19T02:55:58;2.92;;;1.80;;
54745;SDS011;40640;48.130;11.356;2023-02-19T03:00:01;2.22;;;1.73;;
54745;SDS011;40640;48.130;11.356;2023-02-19T03:04:07;3.53;;;1.80;;
54745;SDS011;40640;48.130;11.356;2023-02-19T03:08:14;3.92;;;2.28;;
54745;SDS011;40640;48.130;11.356;2023-02-19T03:12:24;3.33;;;2.10;;
54745;SDS011;40640;48.130;11.356;2023-02-19T03:16:46;2.67;;;1.90;;
54745;SDS011;40640;48.130;11.356;2023-02-19T03:21:11;3.03;;;1.92;;
54745;SDS011;40640;48.130;11.356;2023-02-19T03:25:19;5.43;;;2.30;;
54745;SDS011;40640;48.130;11.356;2023-02-19T03:29:41;2.60;;;2.10;;
54745;SDS011;40640;48.130;11.356;2023-02-19T03:33:48;4.20;;;2.33;;
54745;SDS011;40640;48.130;11.356;2023-02-19T03:37:59;4.00;;;2.42;;
54745;SDS011;40640;48.130;11.356;2023-02-19T03:42:07;2.83;;;2.35;;
54745;SDS011;40640;48.130;11.356;2023-02-19T03:46:20;3.65;;;2.45;;
54745;SDS011;40640;48.130;11.356;2023-02-19T03:50:28;3.83;;;2.17;;
54745;SDS011;40640;48.130;11.356;2023-02-19T03:54:41;3.88;;;2.30;;
54745;SDS011;40640;48.130;11.356;2023-02-19T03:58:50;3.08;;;1.75;;
54745;SDS011;40640;48.130;11.356;2023-02-19T04:02:59;4.90;;;2.40;;
54745;SDS011;40640;48.130;11.356;2023-02-19T04:07:09;4.65;;;2.40;;
54745;SDS011;40640;48.130;11.356;2023-02-19T04:11:15;4.90;;;2.80;;
54745;SDS011;40640;48.130;11.356;2023-02-19T04:15:23;3.30;;;2.15;;
54745;SDS011;40640;48.130;11.356;2023-02-19T04:19:29;3.65;;;2.15;;
54745;SDS011;40640;48.130;11.356;2023-02-19T04:27:40;3.92;;;1.98;;
54745;SDS011;40640;48.130;11.356;2023-02-19T04:31:46;6.40;;;2.08;;
54745;SDS011;40640;48.130;11.356;2023-02-19T04:35:49;2.35;;;1.95;;
54745;SDS011;40640;48.130;11.356;2023-02-19T04:39:52;2.97;;;2.10;;
54745;SDS011;40640;48.130;11.356;2023-02-19T04:43:56;3.33;;;2.72;;
54745;SDS011;40640;48.130;11.356;2023-02-19T04:47:59;2.50;;;1.67;;
54745;SDS011;40640;48.130;11.356;2023-02-19T04:52:01;3.13;;;2.13;;
54745;SDS011;40640;48.130;11.356;2023-02-19T04:56:05;4.18;;;1.70;;
54745;SDS011;40640;48.130;11.356;2023-02-19T05:00:11;5.22;;;2.20;;
54745;SDS011;40640;48.130;11.356;2023-02-19T05:04:14;2.15;;;1.88;;
54745;SDS011;40640;48.130;11.356;2023-02-19T05:08:18;2.33;;;1.90;;
54745;SDS011;40640;48.130;11.356;2023-02-19T05:12:21;3.08;;;1.75;;
54745;SDS011;40640;48.130;11.356;2023-02-19T05:16:25;2.67;;;1.60;;
54745;SDS011;40640;48.130;11.356;2023-02-19T05:20:28;2.78;;;1.95;;
54745;SDS011;40640;48.130;11.356;2023-02-19T05:24:31;3.10;;;1.75;;
54745;SDS011;40640;48.130;11.356;2023-02-19T05:28:34;1.70;;;1.60;;
54745;SDS011;40640;48.130;11.356;2023-02-19T05:32:38;1.55;;;1.40;;
54745;SDS011;40640;48.130;11.356;2023-02-19T05:36:41;3.88;;;1.85;;
54745;SDS011;40640;48.130;11.356;2023-02-19T05:40:44;2.97;;;1.70;;
54745;SDS011;40640;48.130;11.356;2023-02-19T05:44:47;2.05;;;1.60;;
54745;SDS011;40640;48.130;11.356;2023-02-19T05:48:51;2.92;;;1.80;;
54745;SDS011;40640;48.130;11.356;2023-02-19T05:52:55;4.70;;;1.80;;
54745;SDS011;40640;48.130;11.356;2023-02-19T05:56:58;3.90;;;1.80;;
54745;SDS011;40640;48.130;11.356;2023-02-19T06:01:00;3.22;;;1.92;;
54745;SDS011;40640;48.130;11.356;2023-02-19T06:05:05;2.45;;;1.80;;
54745;SDS011;40640;48.130;11.356;2023-02-19T06:09:08;4.93;;;1.98;;
54745;SDS011;40640;48.130;11.356;2023-02-19T06:13:11;4.32;;;2.03;;
54745;SDS011;40640;48.130;11.356;2023-02-19T06:17:17;5.22;;;1.73;;
54745;SDS011;40640;48.130;11.356;2023-02-19T06:21:21;2.85;;;1.80;;
54745;SDS011;40640;48.130;11.356;2023-02-19T06:25:24;3.00;;;1.85;;
54745;SDS011;40640;48.130;11.356;2023-02-19T06:29:27;2.25;;;1.92;;
54745;SDS011;40640;48.130;11.356;2023-02-19T06:33:32;2.90;;;1.80;;
54745;SDS011;40640;48.130;11.356;2023-02-19T06:37:37;3.22;;;2.38;;
54745;SDS011;40640;48.130;11.356;2023-02-19T06:41:40;3.53;;;2.20;;
54745;SDS011;40640;48.130;11.356;2023-02-19T06:45:43;2.50;;;1.88;;
54745;SDS011;40640;48.130;11.356;2023-02-19T06:49:46;4.97;;;1.95;;
54745;SDS011;40640;48.130;11.356;2023-02-19T06:53:50;3.17;;;2.15;;
54745;SDS011;40640;48.130;11.356;2023-02-19T06:57:53;2.78;;;2.10;;
54745;SDS011;40640;48.130;11.356;2023-02-19T07:01:55;4.25;;;2.45;;
54745;SDS011;40640;48.130;11.356;2023-02-19T07:05:58;4.25;;;1.98;;
54745;SDS011;40640;48.130;11.356;2023-02-19T07:10:03;3.15;;;2.08;;
54745;SDS011;40640;48.130;11.356;2023-02-19T07:14:07;2.50;;;1.73;;
54745;SDS011;40640;48.130;11.356;2023-02-19T07:18:16;3.88;;;2.63;;
54745;SDS011;40640;48.130;11.356;2023-02-19T07:22:19;2.60;;;1.95;;
54745;SDS011;40640;48.130;11.356;2023-02-19T07:26:23;8.77;;;5.18;;
54745;SDS011;40640;48.130;11.356;2023-02-19T07:30:26;4.93;;;2.80;;
54745;SDS011;40640;48.130;11.356;2023-02-19T07:34:30;10.07;;;4.15;;
54745;SDS011;40640;48.130;11.356;2023-02-19T07:38:32;2.85;;;2.30;;
54745;SDS011;40640;48.130;11.356;2023-02-19T07:42:36;3.03;;;2.65;;
54745;SDS011;40640;48.130;11.356;2023-02-19T07:46:39;2.40;;;2.20;;
54745;SDS011;40640;48.130;11.356;2023-02-19T07:50:49;2.58;;;2.20;;
54745;SDS011;40640;48.130;11.356;2023-02-19T07:54:52;2.90;;;2.25;;
54745;SDS011;40640;48.130;11.356;2023-02-19T07:58:56;2.75;;;1.60;;
54745;SDS011;40640;48.130;11.356;2023-02-19T08:03:01;4.63;;;2.17;;
54745;SDS011;40640;48.130;11.356;2023-02-19T08:07:04;2.35;;;2.13;;
54745;SDS011;40640;48.130;11.356;2023-02-19T08:11:08;2.25;;;1.88;;
54745;SDS011;40640;48.130;11.356;2023-02-19T08:15:30;4.60;;;2.17;;
54745;SDS011;40640;48.130;11.356;2023-02-19T08:19:34;2.77;;;2.00;;
54745;SDS011;40640;48.130;11.356;2023-02-19T08:23:37;3.80;;;1.80;;
54745;SDS011;40640;48.130;11.356;2023-02-19T08:27:40;2.28;;;1.83;;
54745;SDS011;40640;48.130;11.356;2023-02-19T08:31:44;2.90;;;2.00;;
54745;SDS011;40640;48.130;11.356;2023-02-19T08:35:47;2.53;;;1.80;;
54745;SDS011;40640;48.130;11.356;2023-02-19T08:39:50;1.80;;;1.42;;
54745;SDS011;40640;48.130;11.356;2023-02-19T08:43:53;1.63;;;1.40;;
54745;SDS011;40640;48.130;11.356;2023-02-19T08:47:57;2.35;;;1.85;;
54745;SDS011;40640;48.130;11.356;2023-02-19T08:52:00;2.22;;;1.67;;
54745;SDS011;40640;48.130;11.356;2023-02-19T08:56:03;1.90;;;1.80;;
54745;SDS011;40640;48.130;11.356;2023-02-19T09:00:07;3.40;;;1.88;;
54745;SDS011;40640;48.130;11.356;2023-02-19T09:04:13;2.92;;;2.15;;
54745;SDS011;40640;48.130;11.356;2023-02-19T09:08:16;2.50;;;2.03;;
54745;SDS011;40640;48.130;11.356;2023-02-19T09:12:19;4.03;;;2.10;;
54745;SDS011;40640;48.130;11.356;2023-02-19T09:16:22;2.60;;;1.85;;
54745;SDS011;40640;48.130;11.356;2023-02-19T09:20:26;2.30;;;2.00;;
54745;SDS011;40640;48.130;11.356;2023-02-19T09:24:30;2.13;;;1.85;;
54745;SDS011;40640;48.130;11.356;2023-02-19T09:28:33;1.90;;;1.60;;
54745;SDS011;40640;48.130;11.356;2023-02-19T09:32:36;1.42;;;1.25;;
54745;SDS011;40640;48.130;11.356;2023-02-19T09:36:40;0.88;;;0.85;;
54745;SDS011;40640;48.130;11.356;2023-02-19T09:40:43;2.05;;;1.20;;
54745;SDS011;40640;48.130;11.356;2023-02-19T09:44:47;1.33;;;0.90;;
54745;SDS011;40640;48.130;11.356;2023-02-19T09:48:51;1.20;;;1.00;;
54745;SDS011;40640;48.130;11.356;2023-02-19T09:52:57;0.63;;;0.50;;
54745;SDS011;40640;48.130;11.356;2023-02-19T09:57:03;0.73;;;0.60;;
54745;SDS011;40640;48.130;11.356;2023-02-19T10:01:07;0.80;;;0.43;;
54745;SDS011;40640;48.130;11.356;2023-02-19T10:05:13;0.57;;;0.45;;
54745;SDS011;40640;48.130;11.356;2023-02-19T10:09:20;1.00;;;0.40;;
54745;SDS011;40640;48.130;11.356;2023-02-19T10:13:27;0.20;;;0.20;;
54745;SDS011;40640;48.130;11.356;2023-02-19T10:17:33;0.13;;;0.13;;
54745;SDS011;40640;48.130;11.356;2023-02-19T10:21:37;0.50;;;0.50;;
54745;SDS011;40640;48.130;11.356;2023-02-19T10:25:43;0.50;;;0.50;;
54745;SDS011;40640;48.130;11.356;2023-02-19T10:29:49;1.27;;;0.40;;
54745;SDS011;40640;48.130;11.356;2023-02-19T10:33:56;0.28;;;0.28;;
54745;SDS011;40640;48.130;11.356;2023-02-19T10:38:01;0.68;;;0.50;;
54745;SDS011;40640;48.130;11.356;2023-02-19T10:42:14;0.30;;;0.30;;
54745;SDS011;40640;48.130;11.356;2023-02-19T10:46:19;0.38;;;0.30;;
54745;SDS011;40640;48.130;11.356;2023-02-19T10:50:25;0.40;;;0.40;;
54745;SDS011;40640;48.130;11.356;2023-02-19T10:54:31;0.40;;;0.40;;
54745;SDS011;40640;48.130;11.356;2023-02-19T10:58:37;1.17;;;0.22;;
54745;SDS011;40640;48.130;11.356;2023-02-19T11:02:42;0.57;;;0.28;;
54745;SDS011;40640;48.130;11.356;2023-02-19T11:06:46;0.45;;;0.45;;
54745;SDS011;40640;48.130;11.356;2023-02-19T11:10:49;0.20;;;0.20;;
54745;SDS011;40640;48.130;11.356;2023-02-19T11:14:53;0.75;;;0.63;;
54745;SDS011;40640;48.130;11.356;2023-02-19T11:18:56;0.30;;;0.30;;
54745;SDS011;40640;48.130;11.356;2023-02-19T11:23:00;0.30;;;0.30;;
54745;SDS011;40640;48.130;11.356;2023-02-19T11:27:14;0.30;;;0.30;;
54745;SDS011;40640;48.130;11.356;2023-02-19T11:31:24;0.30;;;0.30;;
54745;SDS011;40640;48.130;11.356;2023-02-19T11:35:31;1.27;;;0.47;;
54745;SDS011;40640;48.130;11.356;2023-02-19T11:39:34;2.60;;;0.40;;
54745;SDS011;40640;48.130;11.356;2023-02-19T11:43:47;0.57;;;0.40;;
54745;SDS011;40640;48.130;11.356;2023-02-19T11:48:15;1.02;;;0.30;;
54745;SDS011;40640;48.130;11.356;2023-02-19T11:52:31;4.43;;;0.30;;
54745;SDS011;40640;48.130;11.356;2023-02-19T11:56:36;1.38;;;0.50;;
54745;SDS011;40640;48.130;11.356;2023-02-19T12:00:43;0.90;;;0.43;;
54745;SDS011;40640;48.130;11.356;2023-02-19T12:05:10;0.47;;;0.47;;
54745;SDS011;40640;48.130;11.356;2023-02-19T12:09:34;0.73;;;0.45;;
54745;SDS011;40640;48.130;11.356;2023-02-19T12:18:11;0.30;;;0.30;;
54745;SDS011;40640;48.130;11.356;2023-02-19T12:22:37;0.40;;;0.40;;
54745;SDS011;40640;48.130;11.356;2023-02-19T12:26:46;2.13;;;0.50;;
54745;SDS011;40640;48.130;11.356;2023-02-19T12:31:09;0.85;;;0.40;;
54745;SDS011;40640;48.130;11.356;2023-02-19T12:35:39;0.60;;;0.45;;
54745;SDS011;40640;48.130;11.356;2023-02-19T12:39:51;1.05;;;0.70;;
54745;SDS011;40640;48.130;11.356;2023-02-19T12:44:07;1.40;;;0.52;;
54745;SDS011;40640;48.130;11.356;2023-02-19T12:48:17;1.10;;;0.65;;
54745;SDS011;40640;48.130;11.356;2023-02-19T12:52:27;3.95;;;2.17;;
54745;SDS011;40640;48.130;11.356;2023-02-19T12:56:37;2.05;;;1.23;;
54745;SDS011;40640;48.130;11.356;2023-02-19T13:00:43;1.27;;;0.93;;
54745;SDS011;40640;48.130;11.356;2023-02-19T13:04:53;2.15;;;0.52;;
54745;SDS011;40640;48.130;11.356;2023-02-19T13:09:05;2.28;;;0.98;;
54745;SDS011;40640;48.130;11.356;2023-02-19T13:13:14;4.28;;;1.90;;
54745;SDS011;40640;48.130;11.356;2023-02-19T13:17:25;2.20;;;1.52;;
54745;SDS011;40640;48.130;11.356;2023-02-19T13:21:32;1.40;;;0.90;;
54745;SDS011;40640;48.130;11.356;2023-02-19T13:25:59;1.75;;;1.00;;
54745;SDS011;40640;48.130;11.356;2023-02-19T13:30:28;3.60;;;1.65;;
54745;SDS011;40640;48.130;11.356;2023-02-19T13:34:41;1.02;;;0.80;;
54745;SDS011;40640;48.130;11.356;2023-02-19T13:38:52;1.08;;;0.80;;
54745;SDS011;40640;48.130;11.356;2023-02-19T13:42:58;2.00;;;0.45;;
54745;SDS011;40640;48.130;11.356;2023-02-19T13:47:04;1.23;;;0.40;;
54745;SDS011;40640;48.130;11.356;2023-02-19T13:51:37;0.50;;;0.40;;
54745;SDS011;40640;48.130;11.356;2023-02-19T13:55:49;0.95;;;0.50;;
54745;SDS011;40640;48.130;11.356;2023-02-19T13:59:54;0.75;;;0.32;;
54745;SDS011;40640;48.130;11.356;2023-02-19T14:04:07;0.43;;;0.40;;
54745;SDS011;40640;48.130;11.356;2023-02-19T14:08:24;3.85;;;1.48;;
54745;SDS011;40640;48.130;11.356;2023-02-19T14:12:48;1.23;;;0.85;;
54745;SDS011;40640;48.130;11.356;2023-02-19T14:16:51;3.88;;;1.60;;
54745;SDS011;40640;48.130;11.356;2023-02-19T14:21:06;0.60;;;0.50;;
54745;SDS011;40640;48.130;11.356;2023-02-19T14:25:20;0.63;;;0.40;;
54745;SDS011;40640;48.130;11.356;2023-02-19T14:29:43;3.50;;;0.93;;
54745;SDS011;40640;48.130;11.356;2023-02-19T14:33:47;2.13;;;0.60;;
54745;SDS011;40640;48.130;11.356;2023-02-19T14:37:53;3.67;;;1.27;;
54745;SDS011;40640;48.130;11.356;2023-02-19T14:41:57;1.85;;;0.77;;
54745;SDS011;40640;48.130;11.356;2023-02-19T14:46:03;2.23;;;0.60;;
54745;SDS011;40640;48.130;11.356;2023-02-19T14:50:11;1.23;;;0.40;;
54745;SDS011;40640;48.130;11.356;2023-02-19T14:54:19;0.75;;;0.70;;
54745;SDS011;40640;48.130;11.356;2023-02-19T14:58:29;1.58;;;0.70;;
54745;SDS011;40640;48.130;11.356;2023-02-19T15:02:40;1.40;;;0.55;;
54745;SDS011;40640;48.130;11.356;2023-02-19T15:06:44;2.30;;;0.75;;
54745;SDS011;40640;48.130;11.356;2023-02-19T15:10:49;2.10;;;0.57;;
54745;SDS011;40640;48.130;11.356;2023-02-19T15:14:52;2.70;;;0.68;;
54745;SDS011;40640;48.130;11.356;2023-02-19T15:18:57;2.55;;;0.90;;
54745;SDS011;40640;48.130;11.356;2023-02-19T15:23:03;4.72;;;0.60;;
54745;SDS011;40640;48.130;11.356;2023-02-19T15:27:11;1.90;;;0.68;;
54745;SDS011;40640;48.130;11.356;2023-02-19T15:31:19;1.05;;;0.60;;
54745;SDS011;40640;48.130;11.356;2023-02-19T15:35:22;1.92;;;0.57;;
54745;SDS011;40640;48.130;11.356;2023-02-19T15:39:32;1.77;;;0.70;;
54745;SDS011;40640;48.130;11.356;2023-02-19T15:43:39;3.47;;;0.60;;
54745;SDS011;40640;48.130;11.356;2023-02-19T15:47:46;1.15;;;0.30;;
54745;SDS011;40640;48.130;11.356;2023-02-19T15:51:54;3.35;;;0.40;;
54745;SDS011;40640;48.130;11.356;2023-02-19T15:56:02;1.40;;;0.50;;
54745;SDS011;40640;48.130;11.356;2023-02-19T16:00:12;1.67;;;0.50;;
54745;SDS011;40640;48.130;11.356;2023-02-19T16:04:19;2.30;;;0.70;;
54745;SDS011;40640;48.130;11.356;2023-02-19T16:08:26;2.92;;;0.88;;
54745;SDS011;40640;48.130;11.356;2023-02-19T16:12:31;1.17;;;0.70;;
54745;SDS011;40640;48.130;11.356;2023-02-19T16:16:35;1.40;;;0.40;;
54745;SDS011;40640;48.130;11.356;2023-02-19T16:20:41;1.55;;;0.60;;
54745;SDS011;40640;48.130;11.356;2023-02-19T16:24:48;1.00;;;0.63;;
54745;SDS011;40640;48.130;11.356;2023-02-19T16:28:54;2.25;;;0.90;;
54745;SDS011;40640;48.130;11.356;2023-02-19T16:37:37;3.22;;;1.63;;
54745;SDS011;40640;48.130;11.356;2023-02-19T16:42:05;7.38;;;2.38;;
54745;SDS011;40640;48.130;11.356;2023-02-19T16:46:14;6.82;;;1.50;;
54745;SDS011;40640;48.130;11.356;2023-02-19T16:50:19;10.45;;;2.80;;
54745;SDS011;40640;48.130;11.356;2023-02-19T16:54:24;2.35;;;1.15;;
54745;SDS011;40640;48.130;11.356;2023-02-19T16:58:27;0.88;;;0.50;;
54745;SDS011;40640;48.130;11.356;2023-02-19T17:02:30;3.17;;;0.55;;
54745;SDS011;40640;48.130;11.356;2023-02-19T17:06:35;1.15;;;0.35;;
54745;SDS011;40640;48.130;11.356;2023-02-19T17:10:39;0.75;;;0.50;;
54745;SDS011;40640;48.130;11.356;2023-02-19T17:14:42;0.68;;;0.60;;
54745;SDS011;40640;48.130;11.356;2023-02-19T17:18:45;1.80;;;0.50;;
54745;SDS011;40640;48.130;11.356;2023-02-19T17:22:49;1.88;;;0.82;;
54745;SDS011;40640;48.130;11.356;2023-02-19T17:26:52;2.13;;;1.00;;
54745;SDS011;40640;48.130;11.356;2023-02-19T17:30:54;0.85;;;0.60;;
54745;SDS011;40640;48.130;11.356;2023-02-19T17:34:57;0.85;;;0.65;;
54745;SDS011;40640;48.130;11.356;2023-02-19T17:39:05;0.32;;;0.25;;
54745;SDS011;40640;48.130;11.356;2023-02-19T17:43:08;1.17;;;0.80;;
54745;SDS011;40640;48.130;11.356;2023-02-19T17:47:11;1.30;;;1.02;;
54745;SDS011;40640;48.130;11.356;2023-02-19T17:51:14;2.22;;;1.13;;
54745;SDS011;40640;48.130;11.356;2023-02-19T17:55:18;3.17;;;0.90;;
54745;SDS011;40640;48.130;11.356;2023-02-19T17:59:21;2.83;;;1.10;;
54745;SDS011;40640;48.130;11.356;2023-02-19T18:03:24;1.27;;;0.90;;
54745;SDS011;40640;48.130;11.356;2023-02-19T18:07:27;2.10;;;1.10;;
54745;SDS011;40640;48.130;11.356;2023-02-19T18:11:31;3.00;;;1.55;;
54745;SDS011;40640;48.130;11.356;2023-02-19T18:15:36;4.82;;;1.40;;
54745;SDS011;40640;48.130;11.356;2023-02-19T18:19:41;4.47;;;1.60;;
54745;SDS011;40640;48.130;11.356;2023-02-19T18:23:45;3.10;;;1.90;;
54745;SDS011;40640;48.130;11.356;2023-02-19T18:27:49;1.38;;;1.08;;
54745;SDS011;40640;48.130;11.356;2023-02-19T18:31:52;4.28;;;1.80;;
54745;SDS011;40640;48.130;11.356;2023-02-19T18:35:55;4.18;;;1.30;;
54745;SDS011;40640;48.130;11.356;2023-02-19T18:39:58;3.70;;;1.23;;
54745;SDS011;40640;48.130;11.356;2023-02-19T18:44:02;3.40;;;1.80;;
54745;SDS011;40640;48.130;11.356;2023-02-19T18:48:06;2.53;;;1.30;;
54745;SDS011;40640;48.130;11.356;2023-02-19T18:52:08;6.78;;;3.75;;
54745;SDS011;40640;48.130;11.356;2023-02-19T18:56:12;2.35;;;1.48;;
54745;SDS011;40640;48.130;11.356;2023-02-19T19:00:17;3.80;;;2.05;;
54745;SDS011;40640;48.130;11.356;2023-02-19T19:04:22;2.00;;;1.48;;
54745;SDS011;40640;48.130;11.356;2023-02-19T19:08:25;3.60;;;1.30;;
54745;SDS011;40640;48.130;11.356;2023-02-19T19:12:31;4.35;;;1.40;;
54745;SDS011;40640;48.130;11.356;2023-02-19T19:16:35;2.97;;;1.83;;
54745;SDS011;40640;48.130;11.356;2023-02-19T19:20:37;8.68;;;1.30;;
54745;SDS011;40640;48.130;11.356;2023-02-19T19:24:41;2.67;;;1.20;;
54745;SDS011;40640;48.130;11.356;2023-02-19T19:28:43;3.35;;;1.70;;
54745;SDS011;40640;48.130;11.356;2023-02-19T19:32:48;3.42;;;1.27;;
54745;SDS011;40640;48.130;11.356;2023-02-19T19:36:52;4.75;;;1.50;;
54745;SDS011;40640;48.130;11.356;2023-02-19T19:40:55;4.40;;;1.60;;
54745;SDS011;40640;48.130;11.356;2023-02-19T19:44:58;7.68;;;2.45;;
54745;SDS011;40640;48.130;11.356;2023-02-19T19:49:02;4.07;;;1.33;;
54745;SDS011;40640;48.130;11.356;2023-02-19T19:53:05;7.15;;;1.70;;
54745;SDS011;40640;48.130;11.356;2023-02-19T19:57:08;3.72;;;1.58;;
54745;SDS011;40640;48.130;11.356;2023-02-19T20:01:11;4.32;;;1.60;;
54745;SDS011;40640;48.130;11.356;2023-02-19T20:05:16;3.28;;;1.58;;
54745;SDS011;40640;48.130;11.356;2023-02-19T20:09:19;3.05;;;1.27;;
54745;SDS011;40640;48.130;11.356;2023-02-19T20:13:25;1.67;;;1.40;;
54745;SDS011;40640;48.130;11.356;2023-02-19T20:17:30;4.55;;;1.73;;
54745;SDS011;40640;48.130;11.356;2023-02-19T20:21:35;3.78;;;1.52;;
54745;SDS011;40640;48.130;11.356;2023-02-19T20:25:37;4.40;;;1.83;;
54745;SDS011;40640;48.130;11.356;2023-02-19T20:29:40;4.80;;;1.27;;
54745;SDS011;40640;48.130;11.356;2023-02-19T20:33:44;5.20;;;1.60;;
54745;SDS011;40640;48.130;11.356;2023-02-19T20:37:50;6.72;;;2.05;;
54745;SDS011;40640;48.130;11.356;2023-02-19T20:41:53;4.78;;;1.60;;
54745;SDS011;40640;48.130;11.356;2023-02-19T20:45:56;4.95;;;1.73;;
54745;SDS011;40640;48.130;11.356;2023-02-19T20:49:59;7.65;;;2.13;;
54745;SDS011;40640;48.130;11.356;2023-02-19T20:54:03;5.75;;;2.40;;
54745;SDS011;40640;48.130;11.356;2023-02-19T20:58:06;8.27;;;1.92;;
54745;SDS011;40640;48.130;11.356;2023-02-19T21:02:13;6.15;;;1.60;;
54745;SDS011;40640;48.130;11.356;2023-02-19T21:06:19;5.63;;;1.63;;
54745;SDS011;40640;48.130;11.356;2023-02-19T21:10:23;7.30;;;1.80;;
54745;SDS011;40640;48.130;11.356;2023-02-19T21:14:27;6.25;;;2.40;;
54745;SDS011;40640;48.130;11.356;2023-02-19T21:18:29;6.32;;;2.50;;
54745;SDS011;40640;48.130;11.356;2023-02-19T21:22:32;5.22;;;1.65;;
54745;SDS011;40640;48.130;11.356;2023-02-19T21:26:37;5.57;;;1.80;;
54745;SDS011;40640;48.130;11.356;2023-02-19T21:30:41;5.40;;;1.63;;
54745;SDS011;40640;48.130;11.356;2023-02-19T21:34:44;4.25;;;1.92;;
54745;SDS011;40640;48.130;11.356;2023-02-19T21:38:46;5.47;;;1.70;;
54745;SDS011;40640;48.130;11.356;2023-02-19T21:42:51;3.05;;;1.40;;
54745;SDS011;40640;48.130;11.356;2023-02-19T21:46:54;2.13;;;1.50;;
54745;SDS011;40640;48.130;11.356;2023-02-19T21:50:57;6.72;;;1.77;;
54745;SDS011;40640;48.130;11.356;2023-02-19T21:55:00;6.97;;;1.90;;
54745;SDS011;40640;48.130;11.356;2023-02-19T21:59:04;5.53;;;1.88;;
54745;SDS011;40640;48.130;11.356;2023-02-19T22:03:07;2.50;;;1.30;;
54745;SDS011;40640;48.130;11.356;2023-02-19T22:07:16;4.32;;;1.98;;
54745;SDS011;40640;48.130;11.356;2023-02-19T22:11:19;4.53;;;1.58;;
54745;SDS011;40640;48.130;11.356;2023-02-19T22:15:23;2.55;;;1.30;;
54745;SDS011;40640;48.130;11.356;2023-02-19T22:19:26;4.25;;;1.40;;
54745;SDS011;40640;48.130;11.356;2023-02-19T22:23:29;5.90;;;1.70;;
54745;SDS011;40640;48.130;11.356;2023-02-19T22:27:32;2.63;;;1.45;;
54745;SDS011;40640;48.130;11.356;2023-02-19T22:31:36;4.75;;;1.77;;
54745;SDS011;40640;48.130;11.356;2023-02-19T22:35:39;2.88;;;1.58;;
54745;SDS011;40640;48.130;11.356;2023-02-19T22:39:43;2.65;;;1.40;;
54745;SDS011;40640;48.130;11.356;2023-02-19T22:43:46;4.10;;;1.70;;
54745;SDS011;40640;48.130;11.356;2023-02-19T22:47:50;2.97;;;2.15;;
54745;SDS011;40640;48.130;11.356;2023-02-19T22:51:55;5.80;;;1.50;;
54745;SDS011;40640;48.130;11.356;2023-02-19T22:56:01;2.63;;;1.27;;
54745;SDS011;40640;48.130;11.356;2023-02-19T23:00:04;2.92;;;1.50;;
54745;SDS011;40640;48.130;11.356;2023-02-19T23:04:10;4.75;;;1.70;;
54745;SDS011;40640;48.130;11.356;2023-02-19T23:08:13;4.15;;;1.50;;
54745;SDS011;40640;48.130;11.356;2023-02-19T23:12:15;6.45;;;2.10;;
54745;SDS011;40640;48.130;11.356;2023-02-19T23:16:18;4.53;;;1.90;;
54745;SDS011;40640;48.130;11.356;2023-02-19T23:20:23;6.88;;;2.20;;
54745;SDS011;40640;48.130;11.356;2023-02-19T23:24:25;5.57;;;1.75;;
54745;SDS011;40640;48.130;11.356;2023-02-19T23:28:28;5.03;;;1.90;;
54745;SDS011;40640;48.130;11.356;2023-02-19T23:32:31;3.88;;;2.10;;
54745;SDS011;40640;48.130;11.356;2023-02-19T23:36:39;4.05;;;1.90;;
54745;SDS011;40640;48.130;11.356;2023-02-19T23:40:42;6.10;;;2.30;;
54745;SDS011;40640;48.130;11.356;2023-02-19T23:44:46;7.57;;;2.22;;
54745;SDS011;40640;48.130;11.356;2023-02-19T23:48:49;5.88;;;2.20;;
54745;SDS011;40640;48.130;11.356;2023-02-19T23:52:53;5.95;;;2.70;;
54745;SDS011;40640;48.130;11.356;2023-02-19T23:56:56;6.82;;;2.28;;
